Time;durP1;ratioP1;P1;durP2;ratioP2;P2;SDS_P1;SDS_P2;PMS_P1;PMS_P2;Temp;Humidity;BMP_temperature;BMP_pressure;BME280_temperature;BME280_humidity;BME280_pressure;Samples;Min_cycle;Max_cycle;Signal;HPM_P1;HPM_P2
2022/09/14 00:00:57;;;;;;;7.85;4.92;;;;;;;11.16;98.15;98915.39;1780693;79;21203;-74
2022/09/14 00:03:23;;;;;;;6.30;5.58;;;;;;;11.19;98.12;98920.81;1769179;80;21056;-74
2022/09/14 00:05:50;;;;;;;8.05;5.83;;;;;;;11.13;98.27;98914.42;1770385;80;21011;-75
2022/09/14 00:08:16;;;;;;;6.97;5.28;;;;;;;11.15;98.22;98921.70;1758122;80;21016;-75
2022/09/14 00:10:44;;;;;;;10.58;6.40;;;;;;;11.21;98.04;98919.59;1767565;80;21041;-75
2022/09/14 00:13:12;;;;;;;9.30;6.30;;;;;;;11.19;98.25;98909.66;1770152;80;21540;-78
2022/09/14 00:15:45;;;;;;;10.40;6.00;;;;;;;11.14;98.39;98907.27;1754123;80;21076;-78
2022/09/14 00:18:11;;;;;;;9.45;5.55;;;;;;;11.13;98.23;98910.44;1780115;79;21577;-78
2022/09/14 00:20:39;;;;;;;6.28;5.60;;;;;;;11.19;98.15;98907.52;1757555;80;21057;-77
2022/09/14 00:23:06;;;;;;;7.00;6.15;;;;;;;11.16;98.28;98910.55;1772412;80;21053;-77
2022/09/14 00:25:32;;;;;;;10.75;6.40;;;;;;;11.09;98.47;98908.37;1768353;80;22210;-76
2022/09/14 00:27:58;;;;;;;11.00;6.17;;;;;;;11.12;98.44;98907.45;1778116;80;21033;-79
2022/09/14 00:30:25;;;;;;;9.20;6.37;;;;;;;11.19;98.30;98911.00;1767119;80;21048;-76
2022/09/14 00:32:51;;;;;;;7.12;5.40;;;;;;;11.16;98.35;98903.91;1778713;80;21034;-77
2022/09/14 00:35:18;;;;;;;7.35;4.95;;;;;;;11.12;98.46;98910.11;1772149;80;21065;-76
2022/09/14 00:37:50;;;;;;;7.33;6.00;;;;;;;11.16;98.24;98908.73;1755646;80;21123;-78
2022/09/14 00:40:17;;;;;;;6.60;6.00;;;;;;;11.10;98.40;98909.48;1762404;79;21580;-76
2022/09/14 00:42:44;;;;;;;5.22;4.72;;;;;;;11.06;98.74;98903.42;1784761;78;21000;-74
2022/09/14 00:45:18;;;;;;;9.75;5.05;;;;;;;11.12;98.65;98905.31;1796039;78;21015;-75
2022/09/14 00:47:48;;;;;;;8.08;5.28;;;;;;;11.17;98.50;98904.23;1809729;78;21509;-76
2022/09/14 00:50:15;;;;;;;7.90;5.78;;;;;;;11.12;98.66;98907.45;1820588;77;21158;-75
2022/09/14 00:52:44;;;;;;;7.00;5.22;;;;;;;11.07;98.90;98901.91;1786334;79;20991;-76
2022/09/14 00:55:15;;;;;;;6.20;5.60;;;;;;;11.13;98.84;98905.13;1808416;79;21112;-76
2022/09/14 00:57:47;;;;;;;6.67;5.97;;;;;;;11.20;98.75;98907.82;1796193;79;21017;-76
2022/09/14 01:00:17;;;;;;;7.22;5.30;;;;;;;11.17;98.89;98910.37;1799028;78;21081;-77
2022/09/14 01:02:45;;;;;;;6.50;5.22;;;;;;;11.19;98.80;98912.33;1828523;78;21022;-77
2022/09/14 01:05:12;;;;;;;7.03;5.50;;;;;;;11.29;98.49;98904.53;1818796;78;21084;-74
2022/09/14 01:08:02;;;;;;;5.85;5.25;;;;;;;11.25;98.58;98900.09;1829545;78;21268;-75
2022/09/14 01:11:10;;;;;;;5.42;4.67;;;;;;;11.24;98.81;98902.43;1808829;78;21085;-75
2022/09/14 01:13:57;;;;;;;7.05;4.60;;;;;;;11.32;98.44;98902.80;1825423;78;21114;-75
2022/09/14 01:16:35;;;;;;;5.60;4.40;;;;;;;11.35;98.05;98899.24;1831495;77;21104;-75
2022/09/14 01:19:07;;;;;;;5.35;4.20;;;;;;;11.30;98.26;98900.84;1795152;78;21020;-76
2022/09/14 01:21:37;;;;;;;7.22;6.50;;;;;;;11.32;98.06;98900.13;1777429;79;21061;-75
2022/09/14 01:24:24;;;;;;;5.83;5.22;;;;;;;11.38;97.82;98894.06;1784183;80;21109;-75
2022/09/14 01:27:42;;;;;;;5.80;4.90;;;;;;;11.35;97.96;98889.94;1791741;79;21301;-77
2022/09/14 01:30:21;;;;;;;6.72;4.35;;;;;;;11.27;98.17;98887.43;1803788;78;21891;-76
2022/09/14 01:33:14;;;;;;;5.45;4.45;;;;;;;11.33;97.93;98888.50;1787183;78;20997;-76
2022/09/14 01:35:56;;;;;;;6.55;4.50;;;;;;;11.34;97.93;98882.17;1829892;78;21738;-77
2022/09/14 01:38:30;;;;;;;6.45;4.45;;;;;;;11.26;98.23;98885.80;1785268;79;21036;-77
2022/09/14 01:40:59;;;;;;;5.65;5.03;;;;;;;11.28;98.21;98883.77;1809691;77;21559;-78
2022/09/14 01:43:33;;;;;;;5.65;4.78;;;;;;;11.34;98.18;98882.99;1792311;78;21327;-80
2022/09/14 01:46:10;;;;;;;5.37;4.67;;;;;;;11.31;98.31;98885.22;1772579;78;21072;-76
2022/09/14 01:48:44;;;;;;;5.62;5.10;;;;;;;11.29;98.29;98880.08;1766942;80;21068;-78
2022/09/14 01:51:14;;;;;;;7.87;5.03;;;;;;;11.34;98.23;98879.52;1792109;78;21034;-76
2022/09/14 01:56:19;;;;;;;5.22;4.65;;;;;;;11.31;98.63;98877.23;1776758;78;28043;-77
2022/09/14 01:58:55;;;;;;;6.75;5.05;;;;;;;11.33;98.49;98876.53;1741234;80;21054;-78
2022/09/14 02:01:30;;;;;;;10.45;8.55;;;;;;;11.32;98.42;98871.73;1727893;80;21946;-77
2022/09/14 02:04:02;;;;;;;8.15;5.45;;;;;;;11.28;98.44;98870.97;1696866;82;20986;-79
2022/09/14 02:06:39;;;;;;;5.80;5.22;;;;;;;11.33;98.24;98867.22;1704000;83;21055;-78
2022/09/14 02:09:09;;;;;;;6.85;5.10;;;;;;;11.31;98.33;98859.95;1686951;83;21065;-76
2022/09/14 02:11:37;;;;;;;4.75;4.17;;;;;;;11.26;98.51;98851.73;1689795;83;20958;-77
2022/09/14 02:14:05;;;;;;;5.10;4.60;;;;;;;11.28;98.34;98861.66;1694927;83;21210;-79
2022/09/14 02:16:32;;;;;;;8.85;7.47;;;;;;;11.33;98.03;98852.60;1681528;83;21108;-77
2022/09/14 02:19:00;;;;;;;5.90;5.30;;;;;;;11.30;98.12;98848.98;1682650;84;21121;-77
2022/09/14 02:21:31;;;;;;;4.92;4.42;;;;;;;11.24;98.37;98851.10;1695519;83;21550;-77
2022/09/14 02:23:58;;;;;;;5.03;4.53;;;;;;;11.28;98.32;98855.02;1706759;82;21073;-74
2022/09/14 02:26:25;;;;;;;6.65;4.35;;;;;;;11.36;98.06;98854.88;1696186;82;21109;-77
2022/09/14 02:28:54;;;;;;;4.70;4.30;;;;;;;11.33;98.18;98851.27;1708854;83;21019;-76
2022/09/14 02:31:53;;;;;;;6.47;4.33;;;;;;;11.29;98.24;98852.68;1697777;83;21549;-78
2022/09/14 02:34:43;;;;;;;4.95;4.35;;;;;;;11.36;98.04;98848.23;1693836;83;21054;-78
2022/09/14 02:37:21;;;;;;;4.45;3.95;;;;;;;11.31;98.07;98844.00;1660770;83;21074;-77
2022/09/14 02:40:25;;;;;;;5.47;4.28;;;;;;;11.32;98.02;98852.27;1686483;83;22627;-77
2022/09/14 02:43:26;;;;;;;5.35;4.35;;;;;;;11.38;97.78;98852.84;1695417;81;21111;-76
2022/09/14 02:46:16;;;;;;;4.65;3.83;;;;;;;11.31;97.89;98844.81;1684236;84;21109;-76
2022/09/14 02:49:06;;;;;;;4.85;4.25;;;;;;;11.29;97.91;98850.02;1681413;85;21070;-78
2022/09/14 02:51:39;;;;;;;4.53;4.12;;;;;;;11.32;97.82;98842.97;1691960;84;21538;-78
2022/09/14 02:54:20;;;;;;;5.22;4.30;;;;;;;11.24;98.09;98843.94;1692402;83;21157;-76
2022/09/14 02:56:46;;;;;;;4.37;3.95;;;;;;;11.17;98.20;98837.27;1721164;80;21025;-75
2022/09/14 02:59:13;;;;;;;4.03;3.62;;;;;;;11.23;98.10;98837.52;1751888;81;21101;-78
2022/09/14 03:01:40;;;;;;;6.08;4.17;;;;;;;11.23;98.14;98841.50;1716358;82;21018;-77
2022/09/14 03:04:06;;;;;;;4.17;3.70;;;;;;;11.17;98.13;98833.79;1716111;82;21019;-75
2022/09/14 03:06:34;;;;;;;4.00;3.58;;;;;;;11.17;98.07;98837.27;1735760;80;21222;-77
2022/09/14 03:09:01;;;;;;;4.50;4.10;;;;;;;11.20;97.68;98840.88;1717144;80;20998;-76
2022/09/14 03:11:28;;;;;;;5.05;3.75;;;;;;;11.12;97.83;98836.20;1721787;80;21041;-75
2022/09/14 03:13:55;;;;;;;5.72;4.03;;;;;;;11.05;98.14;98841.48;1717220;82;21193;-77
2022/09/14 03:16:21;;;;;;;4.92;3.85;;;;;;;11.10;98.08;98839.56;1725361;80;21026;-76
2022/09/14 03:18:47;;;;;;;6.58;4.55;;;;;;;11.09;98.22;98833.42;1721299;80;21491;-75
2022/09/14 03:21:15;;;;;;;4.12;3.83;;;;;;;11.02;98.54;98837.35;1718015;80;21015;-75
2022/09/14 03:23:46;;;;;;;4.97;4.17;;;;;;;11.04;98.58;98838.49;1717732;80;21038;-77
2022/09/14 03:26:16;;;;;;;4.90;4.40;;;;;;;11.12;98.31;98842.84;1722765;80;21030;-75
2022/09/14 03:28:43;;;;;;;4.35;3.95;;;;;;;11.11;98.42;98842.03;1718414;82;21030;-77
2022/09/14 03:31:11;;;;;;;6.75;3.60;;;;;;;11.08;98.55;98841.08;1724904;80;21170;-75
2022/09/14 03:33:38;;;;;;;3.72;3.35;;;;;;;11.14;98.32;98840.30;1716514;80;21071;-76
2022/09/14 03:36:12;;;;;;;5.90;4.87;;;;;;;11.24;97.95;98843.13;1717684;80;21053;-76
2022/09/14 03:38:46;;;;;;;4.35;3.67;;;;;;;11.22;98.00;98840.66;1718745;80;21080;-75
2022/09/14 03:41:15;;;;;;;4.25;3.85;;;;;;;11.18;97.95;98834.93;1724608;80;21034;-79
2022/09/14 03:43:42;;;;;;;4.72;3.92;;;;;;;11.27;97.51;98843.56;1714173;82;21986;-77
2022/09/14 03:46:12;;;;;;;3.98;3.62;;;;;;;11.31;97.16;98850.13;1723244;80;21066;-77
2022/09/14 03:48:39;;;;;;;4.30;3.87;;;;;;;11.26;97.09;98848.58;1729499;80;21069;-76
2022/09/14 03:51:07;;;;;;;4.00;3.60;;;;;;;11.20;96.95;98847.52;1725036;80;21034;-76
2022/09/14 03:53:34;;;;;;;3.80;3.50;;;;;;;11.28;96.63;98847.03;1722901;80;21062;-78
2022/09/14 03:56:07;;;;;;;3.80;3.50;;;;;;;11.32;96.31;98846.47;1724094;80;21278;-77
2022/09/14 03:58:35;;;;;;;3.58;3.20;;;;;;;11.27;96.20;98852.87;1738352;80;21010;-76
2022/09/14 04:01:06;;;;;;;4.85;3.60;;;;;;;11.23;96.14;98849.47;1730465;80;20998;-75
2022/09/14 04:03:33;;;;;;;3.62;3.33;;;;;;;11.31;95.70;98854.63;1773632;80;21034;-75
2022/09/14 04:06:04;;;;;;;5.22;3.95;;;;;;;11.30;95.51;98847.66;1746466;80;21098;-76
2022/09/14 04:08:34;;;;;;;11.18;5.37;;;;;;;11.25;95.83;98852.24;1735642;80;21092;-76
2022/09/14 04:11:12;;;;;;;3.35;3.05;;;;;;;11.26;95.75;98843.75;1740035;80;21483;-79
2022/09/14 04:13:42;;;;;;;4.80;3.50;;;;;;;11.34;95.47;98846.28;1745048;80;21046;-77
2022/09/14 04:16:09;;;;;;;5.28;3.92;;;;;;;11.30;95.46;98853.83;1736679;80;21046;-78
2022/09/14 04:18:37;;;;;;;4.60;3.98;;;;;;;11.28;95.47;98859.00;1743304;80;21023;-79
2022/09/14 04:21:07;;;;;;;4.50;3.30;;;;;;;11.34;95.25;98863.56;1753977;80;21106;-77
2022/09/14 04:23:35;;;;;;;3.90;3.52;;;;;;;11.40;94.97;98866.77;1735945;80;21045;-78
2022/09/14 04:26:04;;;;;;;3.92;3.25;;;;;;;11.34;95.12;98867.04;1726578;80;21053;-76
2022/09/14 04:28:30;;;;;;;4.35;3.35;;;;;;;11.37;95.27;98865.81;1685930;83;21102;-77
2022/09/14 04:31:00;;;;;;;4.40;4.00;;;;;;;11.48;94.99;98865.28;1728463;80;21656;-76
2022/09/14 04:33:32;;;;;;;3.65;3.35;;;;;;;11.51;94.79;98869.38;1731021;80;21205;-77
2022/09/14 04:36:02;;;;;;;5.53;3.65;;;;;;;11.55;94.54;98869.30;1731788;80;21072;-76
2022/09/14 04:38:29;;;;;;;5.33;3.90;;;;;;;11.69;93.95;98869.70;1727182;81;21045;-76
2022/09/14 04:40:56;;;;;;;4.22;3.77;;;;;;;11.71;93.91;98865.00;1728596;80;21506;-78
2022/09/14 04:43:24;;;;;;;4.80;3.70;;;;;;;11.69;93.37;98867.56;1729761;80;21542;-77
2022/09/14 04:45:51;;;;;;;3.92;3.52;;;;;;;11.77;93.15;98866.05;1729099;80;21188;-77
2022/09/14 04:48:19;;;;;;;3.90;3.50;;;;;;;11.81;92.89;98866.78;1726610;83;22044;-78
2022/09/14 04:50:45;;;;;;;3.50;3.12;;;;;;;11.79;92.94;98861.36;1711302;82;21601;-77
2022/09/14 04:53:12;;;;;;;4.17;3.77;;;;;;;11.81;92.81;98861.98;1727193;80;21133;-77
2022/09/14 04:55:40;;;;;;;4.08;3.33;;;;;;;11.92;92.62;98864.11;1721158;80;20983;-76
2022/09/14 04:58:08;;;;;;;3.87;3.47;;;;;;;11.96;92.39;98857.89;1740400;80;21139;-77
2022/09/14 05:00:35;;;;;;;4.08;3.55;;;;;;;11.93;92.34;98861.75;1714888;80;21053;-77
2022/09/14 05:03:03;;;;;;;3.40;3.10;;;;;;;11.97;92.11;98863.51;1714087;80;21050;-78
2022/09/14 05:05:30;;;;;;;4.00;3.60;;;;;;;12.06;91.45;98864.98;1714284;80;20981;-77
2022/09/14 05:07:57;;;;;;;4.42;3.50;;;;;;;11.99;90.71;98871.63;1713971;83;21057;-75
2022/09/14 05:10:23;;;;;;;5.45;3.20;;;;;;;11.87;91.15;98871.83;1714727;80;21069;-76
2022/09/14 05:12:50;;;;;;;3.98;3.52;;;;;;;11.85;90.97;98867.73;1725158;82;21062;-77
2022/09/14 05:15:16;;;;;;;4.60;4.20;;;;;;;11.87;90.62;98874.48;1738382;80;21114;-77
2022/09/14 05:17:43;;;;;;;3.87;3.25;;;;;;;11.80;90.95;98881.13;1730685;82;21542;-77
2022/09/14 05:20:10;;;;;;;4.05;3.27;;;;;;;11.79;91.21;98876.80;1713882;83;21058;-78
2022/09/14 05:22:36;;;;;;;3.83;3.42;;;;;;;11.87;91.16;98877.67;1732966;82;21144;-80
2022/09/14 05:25:03;;;;;;;5.37;3.52;;;;;;;11.86;91.19;98880.00;1729130;82;21030;-78
2022/09/14 05:27:30;;;;;;;4.72;3.40;;;;;;;11.84;91.16;98878.05;1713729;83;21089;-77
2022/09/14 05:29:57;;;;;;;6.30;3.40;;;;;;;11.94;91.14;98885.22;1725576;82;21026;-78
2022/09/14 05:32:23;;;;;;;4.70;3.83;;;;;;;12.00;90.86;98887.08;1714927;82;21050;-78
2022/09/14 05:34:50;;;;;;;4.67;3.83;;;;;;;11.99;91.13;98880.94;1714252;80;21546;-77
2022/09/14 05:37:17;;;;;;;4.50;3.47;;;;;;;11.98;90.93;98880.62;1714671;80;21031;-77
2022/09/14 05:39:43;;;;;;;5.40;4.20;;;;;;;12.06;90.58;98886.28;1720818;80;21038;-78
2022/09/14 05:42:09;;;;;;;4.50;3.90;;;;;;;12.13;90.42;98882.30;1732919;82;21062;-77
2022/09/14 05:44:36;;;;;;;6.25;4.28;;;;;;;12.02;89.49;98887.70;1741269;80;21070;-78
2022/09/14 05:47:03;;;;;;;3.33;3.00;;;;;;;11.92;90.17;98881.41;1719927;80;21105;-79
2022/09/14 05:49:30;;;;;;;4.70;4.30;;;;;;;11.96;90.04;98881.33;1727791;80;21042;-77
2022/09/14 05:51:56;;;;;;;4.65;3.42;;;;;;;11.95;90.05;98886.32;1718148;80;21449;-78
2022/09/14 05:54:23;;;;;;;5.17;3.42;;;;;;;11.91;90.34;98881.61;1716590;80;20968;-77
2022/09/14 05:56:50;;;;;;;5.30;3.80;;;;;;;11.92;90.62;98877.42;1716716;81;20994;-79
2022/09/14 05:59:17;;;;;;;3.77;3.20;;;;;;;12.06;89.83;98868.97;1729085;80;21122;-76
2022/09/14 06:01:44;;;;;;;7.25;3.80;;;;;;;12.09;90.11;98873.91;1733135;80;21043;-86
2022/09/14 06:04:11;;;;;;;4.40;3.87;;;;;;;12.10;90.09;98872.06;1736395;80;21049;-82
2022/09/14 06:06:40;;;;;;;5.30;3.15;;;;;;;12.15;89.95;98878.95;1736598;80;20975;-85
2022/09/14 06:09:06;;;;;;;5.08;3.90;;;;;;;12.26;88.80;98877.55;1718784;81;22164;-84
2022/09/14 06:11:38;;;;;;;5.00;4.30;;;;;;;12.24;89.13;98869.75;1726658;82;22888;-83
2022/09/14 06:14:04;;;;;;;4.87;3.60;;;;;;;12.19;88.88;98869.55;1723494;81;21492;-83
2022/09/14 06:16:31;;;;;;;4.00;3.58;;;;;;;12.22;88.50;98871.79;1729483;80;20975;-82
2022/09/14 06:18:58;;;;;;;4.47;3.70;;;;;;;12.31;88.01;98863.94;1717718;81;21048;-83
2022/09/14 06:21:29;;;;;;;3.95;3.60;;;;;;;12.30;88.28;98870.27;1736203;80;21046;-83
2022/09/14 06:23:56;;;;;;;6.12;3.72;;;;;;;12.27;88.61;98865.88;1741401;80;21142;-84
2022/09/14 06:26:22;;;;;;;4.30;3.87;;;;;;;12.27;88.60;98872.02;1724464;80;20923;-84
2022/09/14 06:28:51;;;;;;;4.22;3.83;;;;;;;12.38;88.31;98872.78;1744182;80;21034;-86
2022/09/14 06:31:21;;;;;;;4.75;4.03;;;;;;;12.41;88.38;98870.21;1746188;82;21062;-84
2022/09/14 06:33:46;;;;;;;5.65;3.90;;;;;;;12.37;88.17;98874.30;1732743;80;21058;-84
2022/09/14 06:36:18;;;;;;;6.17;4.20;;;;;;;12.37;87.90;98870.30;1739150;80;21047;-86
2022/09/14 06:38:45;;;;;;;4.72;4.12;;;;;;;12.45;87.70;98866.12;1732985;80;21014;-84
2022/09/14 06:41:16;;;;;;;4.53;4.10;;;;;;;12.45;87.43;98863.45;1738788;80;21041;-83
2022/09/14 06:43:42;;;;;;;4.53;4.08;;;;;;;12.42;87.92;98855.88;1733557;80;21463;-84
2022/09/14 06:46:17;;;;;;;4.62;3.60;;;;;;;12.51;87.59;98852.50;1741472;80;21542;-82
2022/09/14 06:48:52;;;;;;;5.25;3.65;;;;;;;12.63;87.11;98852.20;1724302;80;21165;-85
2022/09/14 06:51:23;;;;;;;4.53;4.00;;;;;;;12.63;86.71;98853.54;1734138;80;21006;-83
2022/09/14 06:53:50;;;;;;;5.90;3.80;;;;;;;12.64;86.75;98853.86;1727124;80;21114;-82
2022/09/14 06:56:17;;;;;;;4.25;3.90;;;;;;;12.68;86.83;98848.43;1738907;80;21054;-84
2022/09/14 06:58:44;;;;;;;3.87;3.47;;;;;;;12.86;86.66;98851.81;1726253;80;21091;-83
2022/09/14 07:01:14;;;;;;;4.65;3.67;;;;;;;12.95;86.55;98860.44;1733194;80;21109;-84
2022/09/14 07:03:42;;;;;;;5.42;4.20;;;;;;;13.00;86.31;98854.00;1735394;80;21105;-84
2022/09/14 07:06:14;;;;;;;7.92;4.72;;;;;;;13.03;85.36;98856.75;1745336;81;21027;-84
2022/09/14 07:08:41;;;;;;;7.80;4.90;;;;;;;13.13;84.50;98848.66;1738378;80;21022;-82
2022/09/14 07:11:09;;;;;;;5.65;5.12;;;;;;;13.20;84.88;98845.16;1730347;80;20993;-82
2022/09/14 07:13:36;;;;;;;5.00;4.17;;;;;;;13.23;84.83;98842.06;1732630;80;21547;-81
2022/09/14 07:16:03;;;;;;;4.45;3.92;;;;;;;13.26;84.26;98856.33;1730623;80;21093;-80
2022/09/14 07:18:31;;;;;;;4.90;4.17;;;;;;;13.26;82.00;98841.14;1716131;80;21022;-80
2022/09/14 07:21:11;;;;;;;5.17;4.12;;;;;;;13.31;82.22;98836.05;1728442;80;21007;-79
2022/09/14 07:23:39;;;;;;;5.33;4.10;;;;;;;13.30;82.58;98842.39;1729198;80;21030;-79
2022/09/14 07:26:09;;;;;;;4.53;4.05;;;;;;;13.29;82.16;98835.89;1728781;80;21113;-77
2022/09/14 07:28:36;;;;;;;6.60;4.00;;;;;;;13.35;82.47;98828.45;1687138;82;21029;-78
2022/09/14 07:31:03;;;;;;;3.67;3.37;;;;;;;13.54;82.07;98825.41;1721502;80;20995;-79
2022/09/14 07:33:30;;;;;;;4.30;3.90;;;;;;;13.67;81.55;98837.38;1735811;80;21015;-77
2022/09/14 07:36:09;;;;;;;4.55;4.15;;;;;;;13.70;80.23;98842.30;1719438;80;21022;-79
2022/09/14 07:38:36;;;;;;;4.78;4.33;;;;;;;13.68;80.13;98834.22;1731781;80;21188;-78
2022/09/14 07:41:03;;;;;;;4.67;4.10;;;;;;;13.68;80.56;98832.88;1722516;80;21081;-78
2022/09/14 07:43:30;;;;;;;4.10;3.72;;;;;;;13.81;79.51;98823.98;1722730;80;21035;-77
2022/09/14 07:45:57;;;;;;;7.17;4.33;;;;;;;13.89;79.27;98832.59;1723806;80;21046;-77
2022/09/14 07:48:23;;;;;;;4.42;4.03;;;;;;;13.87;76.95;98837.32;1725435;80;21027;-83
2022/09/14 07:51:05;;;;;;;4.28;3.87;;;;;;;13.88;77.87;98834.13;1724894;80;21444;-81
2022/09/14 07:53:35;;;;;;;3.67;3.37;;;;;;;13.90;77.83;98826.73;1730961;80;21053;-80
2022/09/14 07:56:03;;;;;;;3.25;2.95;;;;;;;13.96;76.62;98825.38;1680690;83;21049;-79
2022/09/14 07:58:30;;;;;;;4.90;3.37;;;;;;;14.18;75.96;98821.05;1676913;82;21146;-83
2022/09/14 08:01:07;;;;;;;4.80;3.25;;;;;;;14.34;75.88;98822.40;1680300;82;21130;-78
2022/09/14 08:03:38;;;;;;;5.25;3.37;;;;;;;14.49;75.86;98812.75;1684191;83;21505;-79
2022/09/14 08:06:09;;;;;;;4.12;3.10;;;;;;;14.64;74.35;98809.28;1694394;82;21029;-80
2022/09/14 08:08:38;;;;;;;3.65;3.12;;;;;;;14.78;73.41;98803.84;1678264;82;21083;-81
2022/09/14 08:11:11;;;;;;;5.22;3.45;;;;;;;14.89;72.63;98805.27;1681006;84;21030;-78
2022/09/14 08:13:46;;;;;;;4.10;3.20;;;;;;;15.00;71.90;98810.41;1676280;83;21084;-80
2022/09/14 08:18:47;;;;;;;3.22;2.70;;;;;;;15.25;71.45;98813.58;1681902;84;21106;-79
2022/09/14 08:21:15;;;;;;;3.27;2.30;;;;;;;15.33;70.13;98809.27;1658548;85;21003;-81
2022/09/14 08:23:42;;;;;;;3.95;2.70;;;;;;;15.27;68.93;98800.27;1677155;84;21042;-82
2022/09/14 08:26:13;;;;;;;4.35;3.08;;;;;;;15.20;69.40;98801.38;1687082;82;21074;-81
2022/09/14 08:28:39;;;;;;;5.40;3.33;;;;;;;15.18;70.12;98802.12;1694532;82;21258;-79
2022/09/14 08:31:16;;;;;;;4.85;2.77;;;;;;;15.20;69.68;98794.19;1710707;82;21053;-79
2022/09/14 08:33:45;;;;;;;2.77;2.50;;;;;;;15.26;69.18;98791.13;1713650;83;21057;-82
2022/09/14 08:36:14;;;;;;;3.83;3.10;;;;;;;15.35;68.45;98789.80;1688175;83;21621;-79
2022/09/14 08:38:41;;;;;;;3.80;3.02;;;;;;;15.47;69.05;98791.20;1695515;83;21303;-79
2022/09/14 08:41:29;;;;;;;3.20;2.90;;;;;;;15.64;69.67;98780.20;1704688;84;21199;-80
2022/09/14 08:44:29;;;;;;;4.12;2.90;;;;;;;15.81;68.45;98787.13;1681500;84;21062;-79
2022/09/14 08:47:18;;;;;;;8.15;3.35;;;;;;;15.94;68.95;98788.84;1683701;82;20996;-81
2022/09/14 08:50:11;;;;;;;6.20;2.60;;;;;;;15.97;68.04;98790.23;1686372;83;21001;-79
2022/09/14 08:52:42;;;;;;;4.05;3.12;;;;;;;15.92;67.62;98799.77;1701040;82;25522;-81
2022/09/14 08:55:40;;;;;;;4.28;3.45;;;;;;;15.70;66.73;98799.91;1690009;84;21266;-85
2022/09/14 08:58:41;;;;;;;5.45;3.90;;;;;;;15.45;67.79;98797.31;1673536;83;21073;-77
2022/09/14 09:01:31;;;;;;;3.47;2.87;;;;;;;15.14;68.69;98790.54;1727755;80;21089;-79
2022/09/14 09:04:31;;;;;;;4.20;3.33;;;;;;;14.93;69.77;98791.77;1726994;80;21058;-79
2022/09/14 09:07:20;;;;;;;3.60;2.77;;;;;;;14.79;70.36;98788.08;1733535;82;21014;-84
2022/09/14 09:09:49;;;;;;;3.40;3.00;;;;;;;14.70;71.85;98782.20;1731634;80;21157;-80
2022/09/14 09:12:36;;;;;;;2.80;2.60;;;;;;;14.66;72.17;98777.80;1731955;80;21031;-82
2022/09/14 09:15:21;;;;;;;5.15;3.17;;;;;;;14.64;70.41;98791.06;1737303;80;20995;-80
2022/09/14 09:17:51;;;;;;;2.85;2.65;;;;;;;14.60;70.90;98773.30;1735755;81;21081;-80
2022/09/14 09:20:41;;;;;;;4.42;2.90;;;;;;;14.57;71.23;98779.63;1721147;82;21022;-77
2022/09/14 09:23:19;;;;;;;3.72;3.30;;;;;;;14.53;71.68;98781.36;1718690;80;21531;-77
2022/09/14 09:26:05;;;;;;;3.52;2.83;;;;;;;14.50;71.65;98783.64;1731721;80;21054;-78
2022/09/14 09:28:31;;;;;;;3.12;2.70;;;;;;;14.48;71.36;98785.72;1731565;80;21039;-80
2022/09/14 09:31:01;;;;;;;3.33;3.02;;;;;;;14.43;71.64;98788.20;1727866;80;21565;-79
2022/09/14 09:33:30;;;;;;;2.85;2.65;;;;;;;14.41;72.28;98787.61;1725561;80;21513;-79
2022/09/14 09:36:01;;;;;;;3.77;3.00;;;;;;;14.50;72.21;98790.32;1736866;80;21264;-77
2022/09/14 09:38:29;;;;;;;4.80;3.00;;;;;;;14.54;71.82;98784.84;1743441;82;21022;-77
2022/09/14 09:41:08;;;;;;;3.80;2.90;;;;;;;14.48;72.02;98789.20;1728964;82;21082;-80
2022/09/14 09:43:35;;;;;;;4.90;3.17;;;;;;;14.43;72.23;98789.55;1727685;82;21046;-78
2022/09/14 09:46:03;;;;;;;6.70;3.20;;;;;;;14.36;72.35;98782.92;1698313;82;20979;-79
2022/09/14 09:48:44;;;;;;;3.87;3.05;;;;;;;14.32;71.93;98789.21;1734969;82;21084;-80
2022/09/14 09:51:26;;;;;;;4.42;3.20;;;;;;;14.31;72.53;98792.09;1730282;80;21045;-80
2022/09/14 09:54:14;;;;;;;3.15;2.87;;;;;;;14.26;72.10;98789.27;1717957;82;21604;-74
2022/09/14 09:57:01;;;;;;;3.55;3.05;;;;;;;14.23;72.40;98788.34;1678775;84;21048;-74
2022/09/14 09:59:36;;;;;;;4.33;2.70;;;;;;;14.19;72.68;98794.63;1682037;84;21050;-81
2022/09/14 10:02:30;;;;;;;13.28;3.62;;;;;;;14.26;72.64;98791.41;1678217;84;21502;-76
2022/09/14 10:05:12;;;;;;;;;;;;;;;14.32;72.36;98787.88;1686175;82;21763;-74
2022/09/14 10:07:57;;;;;;;4.22;3.40;;;;;;;14.31;72.67;98775.56;1694710;82;20468;-75
2022/09/14 10:10:27;;;;;;;;;;;;;;;14.29;73.15;98785.66;1691186;83;21509;-73
2022/09/14 10:12:55;;;;;;;4.12;3.25;;;;;;;14.28;73.25;98782.66;1676232;84;20200;-75
2022/09/14 10:15:32;;;;;;;4.00;3.40;;;;;;;14.28;73.16;98775.17;1664190;84;21202;-75
2022/09/14 10:18:05;;;;;;;3.80;3.17;;;;;;;14.26;73.66;98781.25;1683073;82;21083;-75
2022/09/14 10:20:32;;;;;;;4.10;3.60;;;;;;;14.25;74.05;98782.27;1676978;84;21033;-75
2022/09/14 10:23:22;;;;;;;4.50;3.90;;;;;;;14.32;74.61;98778.52;1675228;84;21057;-75
2022/09/14 10:25:51;;;;;;;6.33;3.75;;;;;;;14.34;73.73;98784.47;1680828;84;21199;-76
2022/09/14 10:28:26;;;;;;;5.30;3.70;;;;;;;14.28;74.05;98789.34;1676817;84;21279;-76
2022/09/14 10:31:13;;;;;;;4.78;3.58;;;;;;;14.24;74.01;98785.99;1677923;84;21589;-77
2022/09/14 10:33:41;;;;;;;4.65;4.05;;;;;;;14.21;74.01;98785.08;1698253;82;21633;-74
2022/09/14 10:36:42;;;;;;;4.87;4.08;;;;;;;14.18;74.35;98783.66;1705847;82;21061;-74
2022/09/14 10:39:26;;;;;;;6.97;4.30;;;;;;;14.16;74.52;98785.20;1685684;82;21145;-76
2022/09/14 10:42:26;;;;;;;6.67;4.50;;;;;;;14.24;74.82;98781.98;1686396;84;21499;-73
2022/09/14 10:45:19;;;;;;;9.90;5.37;;;;;;;14.21;74.69;98782.41;1641380;87;21046;-74
2022/09/14 10:47:52;;;;;;;13.93;5.90;;;;;;;14.12;75.82;98776.52;1689137;83;21183;-76
2022/09/14 10:50:33;;;;;;;9.03;6.12;;;;;;;14.08;77.30;98771.27;1686094;82;21117;-75
2022/09/14 10:53:24;;;;;;;10.90;6.83;;;;;;;14.07;77.46;98768.31;1690253;82;21133;-75
2022/09/14 10:56:22;;;;;;;12.20;7.33;;;;;;;14.21;77.54;98765.85;1685909;83;22234;-74
2022/09/14 10:59:13;;;;;;;13.38;7.10;;;;;;;14.27;77.46;98760.16;1678528;83;21548;-81
2022/09/14 11:02:05;;;;;;;11.18;6.92;;;;;;;14.29;77.88;98764.28;1737833;80;21124;-81
2022/09/14 11:04:56;;;;;;;11.03;7.58;;;;;;;14.33;77.91;98758.80;1738315;80;21089;-75
2022/09/14 11:07:37;;;;;;;10.48;5.72;;;;;;;14.39;77.89;98754.45;1744602;80;21054;-75
2022/09/14 11:10:28;;;;;;;8.80;6.53;;;;;;;14.58;77.25;98755.34;1737742;82;21144;-75
2022/09/14 11:13:21;;;;;;;10.58;6.08;;;;;;;14.64;76.08;98754.48;1750226;82;21006;-76
2022/09/14 11:16:29;;;;;;;8.50;6.45;;;;;;;14.66;76.61;98742.22;1722471;82;23947;-74
2022/09/14 11:19:25;;;;;;;9.20;6.15;;;;;;;14.67;77.01;98750.55;1728430;82;21029;-75
2022/09/14 11:22:36;;;;;;;16.52;7.92;;;;;;;14.71;77.61;98747.20;1732056;80;22523;-77
2022/09/14 11:25:17;;;;;;;10.25;7.33;;;;;;;14.89;77.72;98742.94;1731300;80;21123;-79
2022/09/14 11:28:00;;;;;;;8.58;6.92;;;;;;;15.03;77.55;98737.77;1740139;80;21026;-78
2022/09/14 11:30:38;;;;;;;10.80;6.85;;;;;;;15.04;78.21;98734.56;1741278;80;21038;-78
2022/09/14 11:33:16;;;;;;;7.53;6.45;;;;;;;15.05;78.72;98733.02;1732044;80;21086;-79
2022/09/14 11:35:50;;;;;;;7.20;6.50;;;;;;;15.12;79.11;98728.92;1747274;80;21065;-78
2022/09/14 11:38:27;;;;;;;6.97;6.35;;;;;;;15.25;79.23;98733.31;1744473;80;21212;-79
2022/09/14 11:41:20;;;;;;;7.35;6.62;;;;;;;15.23;80.05;98736.73;1740494;80;21042;-79
2022/09/14 11:43:56;;;;;;;7.65;6.72;;;;;;;15.16;81.29;98733.31;1766906;80;20991;-79
2022/09/14 11:46:39;;;;;;;7.05;6.30;;;;;;;15.18;81.69;98740.59;1767558;80;21001;-79
2022/09/14 11:49:26;;;;;;;7.08;6.47;;;;;;;15.20;81.79;98732.66;1757577;80;21144;-78
2022/09/14 11:52:02;;;;;;;7.92;6.25;;;;;;;15.07;81.51;98737.63;1724336;82;21119;-77
2022/09/14 11:54:28;;;;;;;6.42;5.87;;;;;;;14.98;82.68;98728.24;1700096;83;21098;-72
2022/09/14 11:56:59;;;;;;;7.55;6.85;;;;;;;15.04;83.05;98730.02;1722006;82;21608;-75
2022/09/14 11:59:47;;;;;;;7.17;6.47;;;;;;;15.05;83.28;98736.22;1730920;82;21042;-75
2022/09/14 12:02:34;;;;;;;6.85;6.25;;;;;;;15.06;83.68;98734.63;1732796;82;21033;-74
2022/09/14 12:05:09;;;;;;;7.45;6.60;;;;;;;15.19;84.41;98739.56;1713113;83;21109;-76
2022/09/14 12:07:44;;;;;;;7.60;6.85;;;;;;;15.32;84.09;98733.54;1730499;82;21031;-75
2022/09/14 12:10:19;;;;;;;8.05;7.10;;;;;;;15.34;84.12;98748.04;1728484;82;22210;-76